Buckeye, AZ

1:07 PM MST on December 02, 2016 (GMT -0700)
Buckeye Municipal

Weather History for KBXK - October, 2013

Change the Weather History Date:

Saturday, October 5, 2013

  Actual Average (KGYR) Record (KGYR)
Temperature  
Mean Temperature 70 °F -  
Max Temperature 84 °F 91 °F 102 °F (1996)
Min Temperature 57 °F 63 °F 53 °F (2002)
Cooling Degree Days 6    
Growing Degree Days 20 (Base 50)    
Moisture  
Dew Point 15 °F    
Average Humidity 13    
Maximum Humidity 25    
Minimum Humidity 6    
Precipitation  
Precipitation 0.00 in - - ()
Sea Level Pressure  
Sea Level Pressure 30.09 in    
Wind  
Wind Speed 6 mph (NNW)    
Max Wind Speed 13 mph    
Max Gust Speed 21 mph    
Visibility 10 miles    
Events      
Averages and records for this station are not official NWS values.
T = Trace of Precipitation, MM = Missing Value Source: NWS Daily Summary

Daily Weather History Graph

Daily Weather History Graph

Search for Another Location

Airport or City:

Trip Planner

Search our weather history database for the weather conditions in past years. The results will help you decide how hot, cold, wet, or windy it might be!

Date:

Astronomy

Oct. 05, 2013 Rise Set
Actual Time 6:28 AM MST 6:09 PM MST
Civil Twilight 6:03 AM MST 6:34 PM MST
Nautical Twilight 5:34 AM MST 7:02 PM MST
Astronomical Twilight 5:05 AM MST 7:31 PM MST
Moon 7:07 AM MST (10/5) 6:35 PM MST (10/5)
Length of Visible Light 12h 30m
Length of Day
11h 41m
New Moon, 1% of the Moon is Illuminated
Oct 5
New Moon
Oct 11
First Quarter
Oct 18
Full
Oct 26
Last Quarter
Nov 3
New

Hourly Weather History & Observations

Time (MST) Temp. Dew Point Humidity Pressure Visibility Wind Dir Wind Speed Gust Speed Precip Events Conditions
12:15 AM 64.4 °F 14.0 °F 14% 30.01 in 10.0 mi NNW 10.4 mph - N/A   Clear
12:35 AM 64.4 °F 15.8 °F 15% 30.02 in 10.0 mi NNW 11.5 mph - N/A   Clear
12:55 AM 64.4 °F 15.8 °F 15% 30.02 in 10.0 mi NNW 10.4 mph - N/A   Clear
1:15 AM 64.4 °F 15.8 °F 15% 30.03 in 10.0 mi North 10.4 mph - N/A   Clear
1:35 AM 64.4 °F 15.8 °F 15% 30.04 in 10.0 mi NNW 9.2 mph - N/A   Clear
1:55 AM 64.4 °F 15.8 °F 15% 30.05 in 10.0 mi North 8.1 mph - N/A   Clear
2:15 AM 62.6 °F 15.8 °F 16% 30.04 in 10.0 mi North 8.1 mph - N/A   Clear
2:35 AM 59.0 °F 19.4 °F 22% 30.05 in 10.0 mi Calm Calm - N/A   Clear
2:55 AM 59.0 °F 23.0 °F 25% 30.05 in 10.0 mi Calm Calm - N/A   Clear
3:15 AM 59.0 °F 19.4 °F 22% 30.06 in 10.0 mi West 3.5 mph - N/A   Clear
3:35 AM 59.0 °F 17.6 °F 20% 30.06 in 10.0 mi West 4.6 mph - N/A   Clear
3:55 AM 60.8 °F 15.8 °F 17% 30.06 in 10.0 mi Calm Calm - N/A   Clear
4:15 AM 62.6 °F 15.8 °F 16% 30.06 in 10.0 mi NNW 4.6 mph - N/A   Clear
4:35 AM 66.2 °F 14.0 °F 13% 30.07 in 10.0 mi Calm Calm - N/A   Clear
4:55 AM 66.2 °F 14.0 °F 13% 30.07 in 10.0 mi NNE 3.5 mph - N/A   Clear
5:15 AM 64.4 °F 14.0 °F 14% 30.08 in 10.0 mi NNW 4.6 mph - N/A   Clear
5:35 AM 62.6 °F 15.8 °F 16% 30.09 in 10.0 mi NW 4.6 mph - N/A   Clear
5:55 AM 64.4 °F 14.0 °F 14% 30.09 in 10.0 mi North 4.6 mph - N/A   Clear
6:15 AM 64.4 °F 14.0 °F 14% 30.10 in 10.0 mi NNW 5.8 mph - N/A   Clear
6:35 AM 62.6 °F 15.8 °F 16% 30.11 in 10.0 mi North 5.8 mph - N/A   Clear
6:55 AM 57.2 °F 19.4 °F 23% 30.12 in 10.0 mi WSW 3.5 mph - N/A   Clear
7:15 AM 59.0 °F 19.4 °F 22% 30.13 in 10.0 mi WNW 4.6 mph - N/A   Clear
7:35 AM 62.6 °F 17.6 °F 18% 30.14 in 10.0 mi NW 5.8 mph - N/A   Clear
7:55 AM 64.4 °F 17.6 °F 16% 30.15 in 10.0 mi NW 6.9 mph - N/A   Clear
8:15 AM 66.2 °F 15.8 °F 14% 30.16 in 9.0 mi NNW 6.9 mph - N/A   Clear
8:35 AM 68.0 °F 15.8 °F 13% 30.16 in 10.0 mi NNW 8.1 mph - N/A   Clear
8:55 AM 71.6 °F 15.8 °F 12% 30.17 in 10.0 mi NW 8.1 mph - N/A   Clear
9:15 AM 73.4 °F 14.0 °F 10% 30.17 in 10.0 mi Calm Calm - N/A   Clear
9:35 AM 73.4 °F 15.8 °F 11% 30.17 in 10.0 mi SSE 5.8 mph - N/A   Clear
9:55 AM 75.2 °F 14.0 °F 10% 30.17 in 10.0 mi Calm Calm - N/A   Clear
10:15 AM 75.2 °F 14.0 °F 10% 30.17 in 10.0 mi ENE 8.1 mph - N/A   Clear
10:35 AM 75.2 °F 12.2 °F 9% 30.17 in 10.0 mi NNE 5.8 mph - N/A   Clear
10:55 AM 77.0 °F 14.0 °F 9% 30.16 in 8.0 mi East 6.9 mph - N/A   Clear
11:15 AM 77.0 °F 14.0 °F 9% 30.16 in 10.0 mi East 10.4 mph - N/A   Clear
11:35 AM 77.0 °F 14.0 °F 9% 30.16 in 10.0 mi ENE 8.1 mph - N/A   Clear
11:55 AM 78.8 °F 12.2 °F 8% 30.15 in 10.0 mi NNE 6.9 mph - N/A   Clear
12:15 PM 78.8 °F 10.4 °F 7% 30.14 in 10.0 mi Calm Calm - N/A   Clear
12:35 PM 80.6 °F 10.4 °F 7% 30.13 in 10.0 mi NNE 4.6 mph - N/A   Clear
12:55 PM 80.6 °F 10.4 °F 7% 30.12 in 10.0 mi ESE 4.6 mph - N/A   Clear
1:15 PM 80.6 °F 15.8 °F 9% 30.10 in 10.0 mi SE 4.6 mph - N/A   Clear
1:35 PM 82.4 °F 12.2 °F 7% 30.09 in 9.0 mi West 6.9 mph - N/A   Clear
1:55 PM 82.4 °F 8.6 °F 6% 30.09 in 10.0 mi NNW 3.5 mph - N/A   Clear
2:15 PM 82.4 °F 14.0 °F 8% 30.08 in 10.0 mi SE 6.9 mph - N/A   Clear
2:35 PM 82.4 °F 8.6 °F 6% 30.08 in 10.0 mi North 6.9 mph - N/A   Clear
2:55 PM 84.2 °F 8.6 °F 6% 30.08 in 10.0 mi NNW 11.5 mph 20.7 mph N/A   Clear
3:15 PM 84.2 °F 10.4 °F 6% 30.07 in 10.0 mi NW 12.7 mph 17.3 mph N/A   Clear
3:35 PM 82.4 °F 8.6 °F 6% 30.06 in 10.0 mi NW 6.9 mph - N/A   Clear
3:55 PM 84.2 °F 10.4 °F 6% 30.05 in 10.0 mi NNW 9.2 mph - N/A   Clear
4:15 PM 84.2 °F 10.4 °F 6% 30.05 in 10.0 mi NW 6.9 mph - N/A   Clear
4:35 PM 84.2 °F 10.4 °F 6% 30.05 in 10.0 mi NW 5.8 mph - N/A   Clear
4:55 PM 84.2 °F 10.4 °F 6% 30.04 in 10.0 mi WNW 6.9 mph - N/A   Clear
5:15 PM 82.4 °F 10.4 °F 7% 30.04 in 10.0 mi West 6.9 mph - N/A   Clear
5:35 PM 82.4 °F 14.0 °F 8% 30.04 in 10.0 mi West 3.5 mph - N/A   Clear
5:55 PM 80.6 °F 12.2 °F 8% 30.05 in 10.0 mi West 3.5 mph - N/A   Clear
6:15 PM 75.2 °F 28.4 °F 18% 30.05 in 4.0 mi South 3.5 mph - N/A   Clear
6:35 PM 73.4 °F 28.4 °F 19% 30.05 in 8.0 mi SW 4.6 mph - N/A   Clear
6:55 PM 73.4 °F 28.4 °F 19% 30.05 in 9.0 mi Calm Calm - N/A   Clear
7:15 PM 73.4 °F 21.2 °F 14% 30.06 in 10.0 mi West 4.6 mph - N/A   Clear
7:35 PM 71.6 °F 19.4 °F 14% 30.06 in 10.0 mi Calm Calm - N/A   Clear
7:55 PM 73.4 °F 15.8 °F 11% 30.07 in 10.0 mi NNW 3.5 mph - N/A   Clear
8:15 PM 71.6 °F 15.8 °F 12% 30.07 in 10.0 mi Calm Calm - N/A   Clear
8:35 PM 71.6 °F 14.0 °F 11% 30.07 in 10.0 mi North 3.5 mph - N/A   Clear
8:55 PM 68.0 °F 14.0 °F 12% 30.07 in 10.0 mi North 4.6 mph - N/A   Clear
9:15 PM 66.2 °F 14.0 °F 13% 30.08 in 10.0 mi North 9.2 mph - N/A   Clear
9:35 PM 66.2 °F 14.0 °F 13% 30.08 in 10.0 mi NNW 8.1 mph - N/A   Clear
9:55 PM 62.6 °F 23.0 °F 22% 30.09 in 10.0 mi East 3.5 mph - N/A   Clear
10:15 PM 68.0 °F 15.8 °F 13% 30.09 in 10.0 mi Calm Calm - N/A   Clear
10:35 PM 64.4 °F 17.6 °F 16% 30.10 in 10.0 mi Calm Calm - N/A   Clear
10:55 PM 62.6 °F 15.8 °F 16% 30.09 in 10.0 mi NNW 4.6 mph - N/A   Clear
11:15 PM 66.2 °F 15.8 °F 14% 30.10 in 10.0 mi North 6.9 mph - N/A   Clear
11:35 PM 64.4 °F 17.6 °F 16% 30.10 in 9.0 mi NNW 8.1 mph - N/A   Clear
11:55 PM 64.4 °F 15.8 °F 15% 30.10 in 10.0 mi NNW 6.9 mph - N/A   Clear